createdAt,value
2022-11-29T00:01:36.875Z,63.43
2022-11-29T00:04:04.670Z,72.63
2022-11-29T00:06:34.893Z,65.33
2022-11-29T00:09:06.814Z,63.10
2022-11-29T00:11:55.988Z,67.03
2022-11-29T00:14:24.054Z,62.53
2022-11-29T00:16:54.157Z,70.10
2022-11-29T00:19:21.573Z,65.97
2022-11-29T00:21:48.463Z,61.70
2022-11-29T00:24:15.330Z,70.53
2022-11-29T00:26:42.223Z,79.33
2022-11-29T00:29:12.151Z,74.80
2022-11-29T00:31:39.967Z,65.90
2022-11-29T00:34:07.320Z,74.33
2022-11-29T00:36:35.429Z,67.40
2022-11-29T00:39:04.658Z,61.37
2022-11-29T00:41:32.194Z,64.47
2022-11-29T00:43:59.101Z,66.70
2022-11-29T00:46:26.107Z,71.60
2022-11-29T00:48:53.063Z,73.07
2022-11-29T00:51:20.002Z,68.80
2022-11-29T00:53:46.967Z,70.87
2022-11-29T00:56:13.863Z,73.87
2022-11-29T00:58:43.456Z,74.67
2022-11-29T01:01:11.647Z,72.07
2022-11-29T01:03:38.649Z,78.53
2022-11-29T01:06:09.240Z,75.43
2022-11-29T01:08:37.087Z,70.13
2022-11-29T01:11:10.844Z,83.00
2022-11-29T01:13:38.073Z,74.67
2022-11-29T01:16:06.026Z,80.40
2022-11-29T01:18:34.122Z,74.20
2022-11-29T01:21:06.715Z,78.13
2022-11-29T01:23:34.978Z,80.30
2022-11-29T01:26:20.593Z,68.00
2022-11-29T01:28:51.145Z,84.40
2022-11-29T01:31:22.326Z,83.87
2022-11-29T01:33:49.295Z,75.17
2022-11-29T01:36:16.268Z,77.87
2022-11-29T01:38:43.369Z,78.17
2022-11-29T01:41:17.705Z,75.73
2022-11-29T01:44:13.759Z,81.00
2022-11-29T01:46:46.216Z,80.33
2022-11-29T01:49:15.904Z,72.53
2022-11-29T01:51:50.908Z,76.10
2022-11-29T01:54:18.657Z,76.77
2022-11-29T01:56:49.358Z,79.47
2022-11-29T01:59:23.510Z,77.97
2022-11-29T02:01:51.288Z,73.10
2022-11-29T02:04:18.650Z,70.70
2022-11-29T02:06:46.579Z,80.17
2022-11-29T02:09:22.458Z,73.43
2022-11-29T02:12:08.084Z,73.53
2022-11-29T02:14:49.483Z,71.50
2022-11-29T02:17:35.221Z,76.13
2022-11-29T02:20:42.712Z,75.47
2022-11-29T02:23:40.993Z,77.53
2022-11-29T02:26:54.337Z,77.30
2022-11-29T02:29:47.479Z,86.77
2022-11-29T02:33:07.235Z,67.47
2022-11-29T02:36:12.651Z,83.13
2022-11-29T02:39:13.247Z,77.87
2022-11-29T02:42:54.122Z,85.23
2022-11-29T02:45:42.820Z,71.60
2022-11-29T02:48:51.489Z,77.83
2022-11-29T02:51:38.200Z,72.53
2022-11-29T02:54:50.352Z,72.37
2022-11-29T02:57:28.559Z,83.10
2022-11-29T03:00:18.304Z,78.40
2022-11-29T03:02:51.219Z,78.33
2022-11-29T03:05:41.390Z,77.13
2022-11-29T03:08:51.032Z,82.97
2022-11-29T03:11:47.311Z,76.87
2022-11-29T03:14:28.657Z,80.50
2022-11-29T03:17:32.129Z,81.20
2022-11-29T03:20:35.622Z,73.77
2022-11-29T03:23:26.797Z,68.20
2022-11-29T03:26:09.468Z,73.77
2022-11-29T03:28:48.031Z,77.00
2022-11-29T03:31:37.411Z,76.90
2022-11-29T03:34:38.165Z,71.90
2022-11-29T03:37:18.469Z,72.53
2022-11-29T03:39:49.855Z,71.30
2022-11-29T03:42:25.485Z,65.20
2022-11-29T03:45:30.358Z,70.93
2022-11-29T03:48:19.339Z,71.27
2022-11-29T03:50:57.010Z,76.50
2022-11-29T03:54:11.198Z,65.20
2022-11-29T03:56:40.921Z,71.90
2022-11-29T03:59:34.895Z,68.83
2022-11-29T04:02:45.931Z,69.60
2022-11-29T04:05:48.648Z,71.23
2022-11-29T04:08:46.467Z,64.90
2022-11-29T04:12:00.216Z,73.60
2022-11-29T04:14:34.763Z,82.40
2022-11-29T04:17:33.859Z,67.70
2022-11-29T04:20:22.310Z,79.13
2022-11-29T04:23:25.854Z,79.47
2022-11-29T04:26:33.566Z,75.00
2022-11-29T04:29:22.267Z,76.27
2022-11-29T04:32:00.011Z,71.17
2022-11-29T04:34:56.249Z,73.37
2022-11-29T04:37:49.411Z,69.43
2022-11-29T04:41:04.354Z,71.20
2022-11-29T04:44:18.868Z,78.67
2022-11-29T04:47:18.689Z,77.63
2022-11-29T04:50:07.606Z,82.50
2022-11-29T04:53:12.022Z,79.03
2022-11-29T04:56:11.692Z,87.10
2022-11-29T04:58:55.203Z,84.47
2022-11-29T05:01:53.188Z,85.87
2022-11-29T05:05:15.598Z,76.53
2022-11-29T05:08:24.178Z,89.67
2022-11-29T05:11:25.016Z,97.00
2022-11-29T05:14:24.314Z,80.00
2022-11-29T05:17:33.598Z,85.93
2022-11-29T05:20:45.397Z,87.90
2022-11-29T05:23:44.909Z,86.53
2022-11-29T05:26:59.887Z,86.23
2022-11-29T05:29:39.670Z,94.20
2022-11-29T05:32:46.656Z,93.07
2022-11-29T05:35:53.647Z,93.43
2022-11-29T05:38:36.367Z,95.30
2022-11-29T05:41:17.891Z,91.50
2022-11-29T05:44:12.580Z,85.37
2022-11-29T05:46:56.987Z,78.20
2022-11-29T05:49:33.561Z,76.50
2022-11-29T05:52:27.011Z,77.27
2022-11-29T05:55:22.880Z,85.73
2022-11-29T05:58:00.891Z,85.57
2022-11-29T06:00:45.650Z,95.23
2022-11-29T06:03:37.211Z,84.30
2022-11-29T06:06:17.718Z,82.80
2022-11-29T06:09:16.146Z,91.90
2022-11-29T06:11:59.612Z,90.30
2022-11-29T06:14:48.006Z,92.50
2022-11-29T06:17:55.465Z,89.57
2022-11-29T06:21:00.824Z,95.43
2022-11-29T06:24:00.446Z,86.60
2022-11-29T06:27:14.857Z,94.10
2022-11-29T06:29:49.300Z,97.73
2022-11-29T06:32:37.321Z,87.83
2022-11-29T06:35:28.665Z,91.60
2022-11-29T06:37:58.419Z,85.93
2022-11-29T06:40:25.798Z,88.93
2022-11-29T06:42:52.666Z,81.83
2022-11-29T06:45:21.739Z,99.37
2022-11-29T06:48:06.374Z,88.80
2022-11-29T06:51:02.281Z,102.03
2022-11-29T06:53:57.082Z,86.97
2022-11-29T06:56:44.031Z,93.30
2022-11-29T06:59:46.207Z,94.33
2022-11-29T07:02:51.725Z,91.17
2022-11-29T07:05:29.718Z,86.80
2022-11-29T07:08:03.759Z,94.30
2022-11-29T07:10:35.123Z,100.60
2022-11-29T07:13:02.361Z,89.97
2022-11-29T07:15:29.657Z,81.53
2022-11-29T07:18:21.590Z,97.93
2022-11-29T07:21:35.623Z,99.67
2022-11-29T07:24:33.760Z,89.23
2022-11-29T07:27:49.224Z,100.20
2022-11-29T07:30:20.239Z,80.10
2022-11-29T07:33:17.509Z,90.77
2022-11-29T07:36:07.171Z,98.30
2022-11-29T07:39:00.354Z,95.73
2022-11-29T07:42:02.842Z,87.53
2022-11-29T07:44:36.314Z,100.80
2022-11-29T07:47:03.278Z,91.20
2022-11-29T07:49:30.235Z,93.23
2022-11-29T07:51:57.223Z,82.07
2022-11-29T07:54:24.221Z,90.70
2022-11-29T07:56:51.250Z,91.53
2022-11-29T07:59:18.328Z,89.40
2022-11-29T08:01:45.215Z,87.03
2022-11-29T08:04:12.080Z,91.27
2022-11-29T08:06:39.034Z,87.23
2022-11-29T08:09:07.495Z,84.33
2022-11-29T08:11:34.414Z,81.23
2022-11-29T08:14:03.219Z,81.97
2022-11-29T08:16:30.566Z,77.80
2022-11-29T08:18:57.739Z,79.57
2022-11-29T08:21:24.635Z,79.53
2022-11-29T08:23:51.692Z,82.90
2022-11-29T08:26:19.898Z,89.07
2022-11-29T08:28:53.575Z,88.37
2022-11-29T08:31:21.458Z,78.17
2022-11-29T08:33:48.533Z,84.40
2022-11-29T08:36:20.366Z,82.70
2022-11-29T08:38:47.839Z,101.00
2022-11-29T08:41:16.967Z,82.60
2022-11-29T08:43:44.811Z,82.93
2022-11-29T08:46:18.043Z,82.70
2022-11-29T08:48:46.659Z,82.37
2022-11-29T08:51:13.810Z,76.83
2022-11-29T08:53:44.752Z,77.27
2022-11-29T08:57:04.491Z,76.37
2022-11-29T08:59:02.657Z,86.57
2022-11-29T09:01:29.758Z,83.87
2022-11-29T09:03:59.634Z,79.40
2022-11-29T09:06:33.618Z,83.83
2022-11-29T09:09:01.064Z,78.83
2022-11-29T09:11:29.578Z,80.83
2022-11-29T09:14:00.403Z,76.77
2022-11-29T09:16:30.555Z,81.87
2022-11-29T09:18:57.486Z,75.60
2022-11-29T09:21:27.186Z,76.00
2022-11-29T09:23:59.036Z,74.87
2022-11-29T09:26:30.671Z,81.30
2022-11-29T09:29:01.254Z,83.13
2022-11-29T09:31:30.082Z,77.10
2022-11-29T09:33:57.426Z,82.20
2022-11-29T09:36:28.397Z,80.97
2022-11-29T09:38:55.632Z,75.77
2022-11-29T09:42:03.295Z,77.03
2022-11-29T09:45:05.439Z,88.80
2022-11-29T09:47:59.900Z,72.00
2022-11-29T09:50:43.178Z,74.67
2022-11-29T09:53:36.034Z,77.60
2022-11-29T09:56:31.091Z,78.60
2022-11-29T09:59:01.992Z,81.07
2022-11-29T10:01:36.778Z,79.40
2022-11-29T10:04:19.253Z,78.37
2022-11-29T10:07:14.790Z,82.93
2022-11-29T10:09:56.117Z,82.97
2022-11-29T10:12:37.871Z,75.60
2022-11-29T10:15:19.867Z,75.03
2022-11-29T10:18:11.769Z,76.50
2022-11-29T10:20:48.644Z,83.17
2022-11-29T10:23:36.689Z,76.37
2022-11-29T10:26:08.004Z,73.37
2022-11-29T10:28:37.094Z,78.40
2022-11-29T10:31:27.028Z,73.60
2022-11-29T10:34:01.596Z,87.77
2022-11-29T10:36:51.177Z,73.10
2022-11-29T10:39:40.281Z,72.13
2022-11-29T10:42:35.635Z,80.60
2022-11-29T10:45:03.874Z,79.47
2022-11-29T10:47:31.972Z,79.20
2022-11-29T10:49:59.133Z,75.63
2022-11-29T10:52:26.022Z,79.13
2022-11-29T10:54:57.104Z,81.50
2022-11-29T10:57:24.090Z,83.53
2022-11-29T11:00:11.766Z,75.00
2022-11-29T11:02:38.836Z,70.87
2022-11-29T11:05:18.463Z,85.40
2022-11-29T11:07:47.416Z,86.10
2022-11-29T11:10:29.545Z,88.00
2022-11-29T11:13:20.295Z,78.63
2022-11-29T11:15:47.172Z,86.30
2022-11-29T11:18:24.345Z,73.70
2022-11-29T11:20:57.881Z,77.10
2022-11-29T11:23:31.644Z,88.40
2022-11-29T11:26:09.155Z,81.10
2022-11-29T11:28:57.729Z,78.20
2022-11-29T11:31:40.729Z,73.53
2022-11-29T11:34:35.320Z,77.53
2022-11-29T11:37:28.157Z,75.70
2022-11-29T11:39:59.835Z,80.93
2022-11-29T11:42:38.260Z,74.13
2022-11-29T11:45:11.154Z,75.67
2022-11-29T11:47:44.958Z,81.30
2022-11-29T11:50:37.570Z,78.27
2022-11-29T11:53:29.762Z,77.20
2022-11-29T11:56:12.698Z,83.60
2022-11-29T11:58:49.829Z,78.03
2022-11-29T12:01:38.728Z,88.90
2022-11-29T12:04:27.676Z,83.30
2022-11-29T12:07:29.620Z,81.27
2022-11-29T12:10:12.044Z,80.30
2022-11-29T12:12:42.972Z,82.30
2022-11-29T12:15:28.797Z,80.73
2022-11-29T12:18:04.695Z,77.43
2022-11-29T12:20:40.260Z,80.83
2022-11-29T12:23:13.058Z,83.37
2022-11-29T12:26:01.693Z,80.97
2022-11-29T12:28:34.837Z,76.63
2022-11-29T12:31:41.749Z,79.73
2022-11-29T12:34:41.329Z,79.67
2022-11-29T12:37:24.579Z,79.73
2022-11-29T12:40:07.405Z,80.90
2022-11-29T12:43:11.650Z,82.40
2022-11-29T12:46:02.129Z,78.60
2022-11-29T12:49:07.081Z,81.60
2022-11-29T12:51:59.093Z,84.03
2022-11-29T12:54:51.701Z,82.37
2022-11-29T12:57:43.064Z,82.10
2022-11-29T13:00:17.560Z,82.67
2022-11-29T13:03:15.093Z,86.93
2022-11-29T13:05:50.425Z,78.40
2022-11-29T13:08:43.122Z,83.60
2022-11-29T13:11:34.685Z,92.57
2022-11-29T13:17:54.858Z,88.00
2022-11-29T13:20:44.691Z,86.40
2022-11-29T13:24:10.199Z,84.03
2022-11-29T13:26:40.165Z,88.50
2022-11-29T13:29:13.158Z,89.67
2022-11-29T13:31:41.025Z,72.80
2022-11-29T13:34:13.421Z,92.27
2022-11-29T13:37:00.516Z,84.57
2022-11-29T13:39:50.921Z,95.37
2022-11-29T13:42:59.716Z,83.33
2022-11-29T13:45:44.785Z,90.80
2022-11-29T13:48:34.756Z,88.03
2022-11-29T13:51:25.131Z,82.23
2022-11-29T13:53:53.661Z,82.70
2022-11-29T13:56:47.503Z,74.43
2022-11-29T13:59:29.939Z,86.03
2022-11-29T14:01:58.469Z,81.17
2022-11-29T14:04:35.160Z,79.87
2022-11-29T14:07:14.143Z,82.87
2022-11-29T14:09:51.251Z,80.60
2022-11-29T14:12:39.971Z,87.30
2022-11-29T14:15:31.739Z,93.17
2022-11-29T14:18:02.848Z,83.43
2022-11-29T14:20:29.587Z,78.40
2022-11-29T14:23:05.453Z,92.10
2022-11-29T14:25:52.790Z,85.43
2022-11-29T14:28:22.478Z,85.37
2022-11-29T14:31:03.958Z,77.27
2022-11-29T14:34:12.895Z,88.33
2022-11-29T14:37:15.120Z,90.73
2022-11-29T14:39:48.662Z,83.73
2022-11-29T14:42:21.561Z,76.40
2022-11-29T14:45:00.640Z,85.70
2022-11-29T14:47:47.794Z,85.67
2022-11-29T14:50:38.173Z,84.13
2022-11-29T14:53:30.469Z,85.17
2022-11-29T14:56:31.731Z,93.20
2022-11-29T14:59:40.247Z,88.30
2022-11-29T15:02:19.855Z,90.37
2022-11-29T15:04:49.275Z,90.90
2022-11-29T15:07:25.463Z,87.70
2022-11-29T15:09:59.623Z,105.43
2022-11-29T15:12:35.635Z,89.17
2022-11-29T15:15:33.167Z,100.70
2022-11-29T15:18:27.227Z,90.40
2022-11-29T15:21:36.107Z,107.43
2022-11-29T15:24:12.855Z,87.57
2022-11-29T15:26:57.306Z,83.67
2022-11-29T15:29:24.763Z,108.03
2022-11-29T15:31:57.892Z,87.67
2022-11-29T15:34:29.809Z,95.27
2022-11-29T15:36:56.685Z,101.00
2022-11-29T15:39:34.669Z,86.47
2022-11-29T15:42:11.889Z,94.67
2022-11-29T15:44:48.835Z,89.80
2022-11-29T15:47:24.948Z,102.77
2022-11-29T15:49:55.410Z,97.47
2022-11-29T15:52:33.827Z,96.93
2022-11-29T15:55:04.849Z,92.10
2022-11-29T15:57:39.978Z,108.03
2022-11-29T16:00:15.252Z,84.77
2022-11-29T16:03:01.657Z,100.10
2022-11-29T16:05:34.397Z,100.50
2022-11-29T16:08:05.702Z,88.10
2022-11-29T16:10:47.331Z,94.60
2022-11-29T16:13:31.968Z,100.70
2022-11-29T16:16:20.349Z,109.93
2022-11-29T16:18:48.931Z,94.10
2022-11-29T16:21:29.020Z,97.53
2022-11-29T16:23:56.981Z,93.77
2022-11-29T16:26:33.916Z,83.03
2022-11-29T16:29:00.952Z,85.17
2022-11-29T16:31:37.391Z,89.63
2022-11-29T16:34:34.061Z,95.20
2022-11-29T16:37:06.259Z,92.90
2022-11-29T16:39:35.444Z,92.17
2022-11-29T16:42:24.648Z,93.23
2022-11-29T16:45:27.639Z,90.50
2022-11-29T16:47:59.435Z,93.30
2022-11-29T16:50:31.468Z,86.80
2022-11-29T16:53:42.872Z,92.17
2022-11-29T16:56:20.725Z,84.20
2022-11-29T16:59:24.597Z,92.97
2022-11-29T17:01:40.643Z,89.60
2022-11-29T17:04:08.971Z,93.13
2022-11-29T17:06:36.361Z,90.30
2022-11-29T17:09:04.697Z,88.87
2022-11-29T17:11:31.586Z,83.70
2022-11-29T17:13:58.798Z,99.13
2022-11-29T17:16:25.708Z,98.27
2022-11-29T17:18:53.715Z,91.17
2022-11-29T17:21:26.119Z,95.50
2022-11-29T17:23:53.762Z,90.57
2022-11-29T17:26:21.619Z,84.23
2022-11-29T17:28:51.070Z,88.93
2022-11-29T17:31:21.550Z,94.50
2022-11-29T17:33:48.850Z,94.60
2022-11-29T17:36:19.280Z,90.90
2022-11-29T17:38:46.552Z,86.57
2022-11-29T17:41:21.811Z,89.13
2022-11-29T17:43:50.520Z,99.43
2022-11-29T17:46:23.640Z,116.93
2022-11-29T17:48:52.195Z,100.40
2022-11-29T17:51:50.693Z,94.00
2022-11-29T17:54:09.754Z,87.47
2022-11-29T17:56:36.632Z,99.10
2022-11-29T17:59:04.444Z,100.73
2022-11-29T18:01:34.653Z,97.20
2022-11-29T18:04:04.375Z,104.03
2022-11-29T18:06:39.142Z,89.73
2022-11-29T18:09:08.841Z,96.50
2022-11-29T18:11:46.900Z,105.20
2022-11-29T18:14:19.802Z,101.23
2022-11-29T18:16:46.814Z,98.00
2022-11-29T18:19:17.316Z,109.43
2022-11-29T18:21:44.258Z,98.50
2022-11-29T18:24:11.590Z,100.27
2022-11-29T18:26:39.241Z,109.70
2022-11-29T18:29:07.274Z,105.77
2022-11-29T18:31:41.762Z,108.27
2022-11-29T18:34:10.943Z,105.60
2022-11-29T18:36:44.308Z,112.80
2022-11-29T18:39:15.387Z,111.57
2022-11-29T18:41:45.189Z,111.87
2022-11-29T18:44:14.511Z,102.43
2022-11-29T18:46:44.405Z,114.30
2022-11-29T18:49:14.450Z,105.77
2022-11-29T18:51:44.516Z,109.23
2022-11-29T18:54:12.550Z,109.80
2022-11-29T18:56:39.960Z,99.80
2022-11-29T18:59:11.738Z,100.97
2022-11-29T19:01:42.312Z,112.97
2022-11-29T19:04:13.450Z,104.23
2022-11-29T19:06:41.018Z,107.83
2022-11-29T19:09:14.507Z,100.00
2022-11-29T19:11:41.807Z,108.97
2022-11-29T19:14:11.727Z,116.50
2022-11-29T19:16:42.527Z,115.23
2022-11-29T19:19:09.785Z,104.93
2022-11-29T19:21:36.833Z,108.47
2022-11-29T19:24:13.196Z,109.90
2022-11-29T19:26:40.875Z,112.63
2022-11-29T19:29:07.774Z,103.53
2022-11-29T19:31:34.644Z,116.20
2022-11-29T19:34:01.565Z,111.37
2022-11-29T19:36:30.939Z,107.53
2022-11-29T19:39:03.162Z,117.53
2022-11-29T19:41:33.370Z,114.10
2022-11-29T19:44:07.374Z,113.83
2022-11-29T19:46:41.506Z,116.20
2022-11-29T19:49:09.933Z,129.03
2022-11-29T19:51:37.380Z,115.80
2022-11-29T19:54:07.146Z,118.63
2022-11-29T19:56:34.424Z,107.93
2022-11-29T19:59:01.311Z,117.17
2022-11-29T20:01:37.847Z,111.43
2022-11-29T20:04:06.514Z,121.90
2022-11-29T20:06:33.410Z,131.80
2022-11-29T20:09:00.441Z,112.10
2022-11-29T20:11:27.397Z,112.20
2022-11-29T20:14:00.616Z,124.20
2022-11-29T20:16:29.491Z,128.43
2022-11-29T20:18:57.116Z,124.50
2022-11-29T20:21:29.915Z,116.90
2022-11-29T20:24:03.638Z,119.10
2022-11-29T20:26:33.567Z,109.90
2022-11-29T20:29:02.106Z,127.67
2022-11-29T20:31:29.905Z,112.37
2022-11-29T20:33:59.835Z,108.80
2022-11-29T20:37:12.876Z,108.67
2022-11-29T20:40:19.785Z,114.70
2022-11-29T20:43:09.353Z,123.73
2022-11-29T20:45:36.915Z,119.63
2022-11-29T20:48:17.666Z,109.17
2022-11-29T20:50:53.753Z,115.57
2022-11-29T20:53:44.285Z,118.63
2022-11-29T20:56:11.923Z,111.73
2022-11-29T20:58:39.315Z,121.13
2022-11-29T21:01:07.348Z,116.43
2022-11-29T21:03:34.771Z,119.47
2022-11-29T21:06:05.339Z,115.17
2022-11-29T21:08:32.610Z,125.90
2022-11-29T21:11:10.259Z,112.70
2022-11-29T21:13:38.029Z,113.13
2022-11-29T21:16:05.445Z,112.43
2022-11-29T21:18:33.802Z,119.20
2022-11-29T21:21:20.081Z,107.60
2022-11-29T21:24:11.252Z,117.33
2022-11-29T21:26:51.127Z,124.63
2022-11-29T21:29:19.927Z,114.33
2022-11-29T21:31:50.417Z,120.17
2022-11-29T21:34:17.649Z,113.33
2022-11-29T21:36:45.549Z,124.80
2022-11-29T21:39:15.546Z,116.30
2022-11-29T21:41:42.506Z,110.57
2022-11-29T21:44:09.383Z,107.70
2022-11-29T21:46:36.463Z,118.03
2022-11-29T21:49:04.151Z,113.67
2022-11-29T21:51:31.005Z,122.63
2022-11-29T21:53:57.894Z,119.80
2022-11-29T21:56:25.420Z,114.83
2022-11-29T21:58:52.397Z,116.33
2022-11-29T22:01:20.349Z,129.00
2022-11-29T22:03:47.601Z,122.50
2022-11-29T22:06:18.578Z,117.87
2022-11-29T22:08:45.460Z,115.30
2022-11-29T22:11:30.915Z,112.40
2022-11-29T22:14:18.895Z,114.03
2022-11-29T22:16:55.372Z,127.53
2022-11-29T22:19:31.862Z,131.13
2022-11-29T22:22:05.841Z,119.00
2022-11-29T22:24:35.983Z,120.00
2022-11-29T22:27:03.231Z,123.73
2022-11-29T22:29:30.250Z,133.27
2022-11-29T22:31:59.171Z,122.73
2022-11-29T22:34:27.782Z,112.67
2022-11-29T22:36:55.339Z,116.33
2022-11-29T22:39:22.856Z,118.40
2022-11-29T22:41:54.271Z,122.00
2022-11-29T22:44:23.134Z,119.43
2022-11-29T22:46:50.693Z,117.23
2022-11-29T22:49:17.673Z,104.90
2022-11-29T22:51:44.541Z,108.13
2022-11-29T22:54:11.791Z,118.37
2022-11-29T22:56:41.082Z,119.17
2022-11-29T22:59:08.354Z,128.73
2022-11-29T23:01:38.683Z,114.60
2022-11-29T23:04:10.367Z,114.03
2022-11-29T23:06:44.864Z,115.77
2022-11-29T23:09:20.997Z,121.50
2022-11-29T23:11:54.070Z,118.03
2022-11-29T23:14:22.482Z,120.43
2022-11-29T23:16:49.790Z,120.23
2022-11-29T23:19:17.363Z,115.33
2022-11-29T23:21:45.761Z,113.13
2022-11-29T23:24:14.034Z,107.60
2022-11-29T23:26:45.470Z,103.77
2022-11-29T23:29:17.083Z,114.73
2022-11-29T23:31:44.260Z,109.10
2022-11-29T23:34:12.377Z,114.37
2022-11-29T23:36:39.422Z,114.10
2022-11-29T23:39:06.991Z,115.00
2022-11-29T23:41:36.214Z,119.97
2022-11-29T23:44:05.089Z,117.00
2022-11-29T23:46:32.760Z,100.40
2022-11-29T23:48:59.626Z,116.97
2022-11-29T23:51:26.502Z,115.00
2022-11-29T23:53:55.027Z,119.90
2022-11-29T23:56:22.823Z,108.67
2022-11-29T23:58:49.964Z,121.20
